Time;durP1;ratioP1;P1;durP2;ratioP2;P2;SDS_P1;SDS_P2;PMS_P1;PMS_P2;Temp;Humidity;BMP_temperature;BMP_pressure;BME280_temperature;BME280_humidity;BME280_pressure;Samples;Min_cycle;Max_cycle;Signal;HPM_P1;HPM_P2
2022/01/23 00:03:35;;;;;;;28.15;11.85;;;;;;;5.06;100.00;101545.84;12270570;19;20010;-84
2022/01/23 00:07:39;;;;;;;24.93;12.40;;;;;;;5.06;100.00;101540.38;12273231;19;20002;-84
2022/01/23 00:11:48;;;;;;;26.95;12.25;;;;;;;5.09;100.00;101542.81;12270983;19;20350;-84
2022/01/23 00:20:12;;;;;;;23.10;11.45;;;;;;;5.02;100.00;101534.41;12272566;19;20078;-85
2022/01/23 00:32:35;;;;;;;25.25;12.60;;;;;;;5.12;100.00;101528.81;12269159;19;20006;-84
2022/01/23 00:36:37;;;;;;;21.50;10.98;;;;;;;5.13;100.00;101536.81;12264804;19;20014;-85
2022/01/23 00:40:41;;;;;;;28.05;11.65;;;;;;;5.16;100.00;101527.41;12266781;19;20025;-84
2022/01/23 00:44:46;;;;;;;20.50;11.13;;;;;;;5.15;100.00;101517.53;12265097;19;20455;-83
2022/01/23 00:52:58;;;;;;;25.92;11.63;;;;;;;5.12;100.00;101528.81;12260802;19;20006;-84
2022/01/23 00:57:03;;;;;;;22.50;11.18;;;;;;;5.11;100.00;101527.91;12266633;19;20014;-84
2022/01/23 01:01:04;;;;;;;22.17;11.57;;;;;;;5.14;100.00;101540.38;12268915;19;20003;-85
2022/01/23 01:05:08;;;;;;;21.40;11.60;;;;;;;5.13;100.00;101536.81;12264603;19;20010;-84
2022/01/23 01:09:14;;;;;;;;;;;;;;;5.11;100.00;101538.00;12273566;19;20003;-85
2022/01/23 01:13:16;;;;;;;24.33;11.25;;;;;;;5.11;100.00;101547.06;12274787;19;19922;-85
2022/01/23 01:34:33;;;;;;;24.83;11.60;;;;;;;4.98;100.00;101525.72;12265472;19;20021;-84
2022/01/23 01:38:35;;;;;;;24.00;12.00;;;;;;;5.01;100.00;101522.66;12260855;19;20013;-84
2022/01/23 01:42:36;;;;;;;25.48;12.00;;;;;;;5.01;100.00;101519.06;12267248;19;20374;-85
2022/01/23 01:46:39;;;;;;;28.00;12.88;;;;;;;4.93;100.00;101508.13;12270057;19;20053;-85
2022/01/23 01:50:46;;;;;;;26.23;12.73;;;;;;;4.93;100.00;101502.66;12264538;19;20009;-84
2022/01/23 01:54:58;;;;;;;28.73;13.15;;;;;;;4.95;100.00;101501.47;12267840;19;20017;-84
2022/01/23 01:59:18;;;;;;;28.40;13.65;;;;;;;4.96;100.00;101507.78;12263922;19;20010;-84
2022/01/23 02:08:27;;;;;;;27.33;13.30;;;;;;;4.91;100.00;101502.00;12261899;19;20017;-84
2022/01/23 02:16:53;;;;;;;30.00;14.32;;;;;;;4.86;100.00;101501.66;12269591;19;20006;-84
2022/01/23 03:02:08;;;;;;;30.73;14.75;;;;;;;4.80;100.00;101514.97;12256671;19;19995;-83
2022/01/23 03:10:44;;;;;;;25.23;13.82;;;;;;;4.80;100.00;101536.81;12265761;19;20018;-83
2022/01/23 03:15:16;;;;;;;30.83;13.80;;;;;;;4.79;100.00;101526.06;12261277;19;20010;-84
2022/01/23 03:28:17;;;;;;;30.38;14.73;;;;;;;4.73;100.00;101518.53;12262151;19;20007;-84
2022/01/23 03:32:26;;;;;;;31.08;13.93;;;;;;;4.76;100.00;101515.50;12254546;19;20014;-84
2022/01/23 03:36:28;;;;;;;30.23;13.40;;;;;;;4.75;100.00;101517.34;12265973;19;20006;-84
2022/01/23 03:40:30;;;;;;;29.95;13.95;;;;;;;4.77;100.00;101525.38;12257728;19;20010;-84
2022/01/23 03:44:36;;;;;;;30.48;14.82;;;;;;;4.73;100.00;101524.00;12253232;19;20010;-84
2022/01/23 03:52:51;;;;;;;32.70;14.95;;;;;;;4.78;100.00;101516.16;12258998;19;20494;-85
2022/01/23 03:56:55;;;;;;;34.15;16.35;;;;;;;4.80;100.00;101514.13;12256292;19;20006;-84
2022/01/23 04:00:58;;;;;;;34.28;15.05;;;;;;;4.80;100.00;101509.50;12265127;19;20070;-84
2022/01/23 04:05:00;;;;;;;32.95;15.32;;;;;;;4.77;100.00;101522.66;12263159;19;20464;-85
2022/01/23 04:09:05;;;;;;;33.03;15.98;;;;;;;4.80;100.00;101519.56;12270807;19;20021;-83
2022/01/23 04:13:29;;;;;;;33.72;15.00;;;;;;;4.80;100.00;101514.13;12275466;19;20014;-84
2022/01/23 05:00:47;;;;;;;33.60;15.43;;;;;;;4.73;100.00;101534.91;12267469;19;20070;-83
2022/01/23 05:04:51;;;;;;;38.25;17.20;;;;;;;4.72;100.00;101538.69;12266795;19;20022;-86
2022/01/23 05:09:12;;;;;;;35.85;15.35;;;;;;;4.72;100.00;101525.88;12265775;19;20030;-85
2022/01/23 05:13:28;;;;;;;36.92;17.20;;;;;;;4.72;100.00;101535.94;12268607;19;20014;-85
2022/01/23 05:17:30;;;;;;;34.58;17.52;;;;;;;4.69;100.00;101539.88;12263893;19;23539;-84
2022/01/23 05:21:59;;;;;;;35.55;16.13;;;;;;;4.68;100.00;101549.09;12261672;19;20007;-85
2022/01/23 05:25:59;;;;;;;33.33;16.30;;;;;;;4.70;100.00;101551.63;12266514;19;20031;-86
2022/01/23 05:30:01;;;;;;;39.45;16.58;;;;;;;4.71;100.00;101559.69;12272566;19;19999;-85
2022/01/23 05:34:03;;;;;;;38.10;17.30;;;;;;;4.71;100.00;101550.63;12273716;19;20018;-84
2022/01/23 05:38:05;;;;;;;36.65;17.45;;;;;;;4.71;100.00;101559.69;12280320;19;20014;-84
2022/01/23 05:42:08;;;;;;;32.92;17.52;;;;;;;4.70;100.00;101559.84;12274234;19;20447;-84
2022/01/23 05:46:12;;;;;;;33.72;16.27;;;;;;;4.70;100.00;101563.44;12273301;19;20008;-85
2022/01/23 05:50:34;;;;;;;38.28;17.25;;;;;;;4.71;100.00;101564.28;12276407;19;20011;-85
2022/01/23 05:55:04;;;;;;;38.83;18.02;;;;;;;4.71;100.00;101564.28;12265098;19;20500;-84
2022/01/23 05:59:31;;;;;;;42.22;18.50;;;;;;;4.72;100.00;101563.25;12267959;19;20060;-84
2022/01/23 06:03:36;;;;;;;31.25;15.70;;;;;;;4.73;100.00;101567.69;12260360;19;20002;-84
2022/01/23 06:07:43;;;;;;;36.33;16.70;;;;;;;4.75;100.00;101558.31;12271239;19;20006;-85
2022/01/23 06:11:45;;;;;;;34.07;16.00;;;;;;;4.74;100.00;101572.16;12272108;19;20039;-85
2022/01/23 06:15:47;;;;;;;;;;;;;;;4.74;100.00;101577.63;12269600;19;20279;-84
2022/01/23 06:19:50;;;;;;;38.83;15.90;;;;;;;4.72;100.00;101571.44;12263863;19;19922;-84
2022/01/23 06:24:29;;;;;;;32.80;15.65;;;;;;;4.73;100.00;101568.56;12268942;19;20068;-85
2022/01/23 06:28:52;;;;;;;36.55;16.00;;;;;;;4.72;100.00;101568.72;12256729;19;20014;-83
2022/01/23 06:32:53;;;;;;;35.80;17.45;;;;;;;4.71;100.00;101581.53;12257011;19;20007;-82
2022/01/23 06:36:56;;;;;;;34.47;16.58;;;;;;;4.71;100.00;101575.22;12255574;19;20115;-82
2022/01/23 06:40:58;;;;;;;;;;;;;;;4.70;100.00;101577.09;12258400;19;20007;-84
2022/01/23 06:45:14;;;;;;;36.38;16.17;;;;;;;4.70;100.00;101584.41;12259713;19;19918;-83
2022/01/23 06:49:17;;;;;;;35.53;15.80;;;;;;;4.69;100.00;101591.75;12261642;19;20044;-83
2022/01/23 06:53:19;;;;;;;35.38;15.77;;;;;;;4.70;100.00;101589.88;12252056;19;20002;-83
2022/01/23 06:57:21;;;;;;;39.83;18.57;;;;;;;4.69;100.00;101599.09;12255581;19;20011;-83
2022/01/23 07:01:25;;;;;;;39.63;17.23;;;;;;;4.70;100.00;101604.41;12257253;19;20006;-83
2022/01/23 07:05:35;;;;;;;38.53;17.33;;;;;;;4.70;100.00;101611.72;12248933;19;20022;-85
2022/01/23 07:09:49;;;;;;;35.42;16.38;;;;;;;4.70;100.00;101618.06;12227083;19;20014;-84
2022/01/23 07:14:16;;;;;;;36.33;17.65;;;;;;;4.68;100.00;101611.91;12233704;19;20022;-84
2022/01/23 07:18:32;;;;;;;34.28;16.42;;;;;;;4.68;100.00;101625.56;12236212;19;20014;-84
2022/01/23 07:22:48;;;;;;;35.80;16.75;;;;;;;4.68;100.00;101630.16;12236787;19;20015;-84
2022/01/23 07:26:50;;;;;;;;;;;;;;;4.67;100.00;101637.50;12241856;19;20014;-83
2022/01/23 07:30:59;;;;;;;39.70;17.75;;;;;;;4.70;100.00;101642.63;12253964;19;19922;-83
2022/01/23 07:35:01;;;;;;;34.53;16.73;;;;;;;4.71;100.00;101643.50;12251193;19;20006;-85
2022/01/23 07:39:04;;;;;;;41.10;17.85;;;;;;;4.70;100.00;101641.75;12254905;19;20026;-84
2022/01/23 07:43:15;;;;;;;36.37;17.60;;;;;;;4.73;100.00;101649.63;12255333;19;20014;-83
2022/01/23 07:47:51;;;;;;;35.92;17.95;;;;;;;4.76;100.00;101649.31;12266422;19;20035;-84
2022/01/23 07:52:19;;;;;;;40.67;17.95;;;;;;;4.77;100.00;101656.47;12253497;19;20010;-84
2022/01/23 07:56:31;;;;;;;37.63;17.58;;;;;;;4.79;100.00;101654.44;12247479;19;20034;-83
2022/01/23 08:00:49;;;;;;;37.67;18.02;;;;;;;4.82;100.00;101658.69;12254935;19;20028;-83
2022/01/23 08:04:51;;;;;;;36.25;17.35;;;;;;;4.85;100.00;101658.34;12245973;19;20021;-82
2022/01/23 08:08:56;;;;;;;39.58;18.25;;;;;;;4.82;100.00;101659.56;12248297;19;20075;-82
2022/01/23 08:13:05;;;;;;;36.17;17.70;;;;;;;4.83;100.00;101665.88;12262834;19;20014;-84
2022/01/23 08:17:08;;;;;;;40.20;18.08;;;;;;;4.82;100.00;101665.03;12248989;19;20018;-83
2022/01/23 08:21:22;;;;;;;42.60;19.50;;;;;;;4.83;100.00;101685.84;12267986;19;20032;-83
2022/01/23 08:25:24;;;;;;;35.75;17.38;;;;;;;4.87;100.00;101670.81;12268659;19;20021;-83
2022/01/23 08:29:25;;;;;;;38.95;17.13;;;;;;;4.97;100.00;101687.94;12267632;19;20026;-84
2022/01/23 08:33:32;;;;;;;40.67;18.27;;;;;;;5.01;100.00;101685.72;12261885;19;20006;-83
2022/01/23 08:37:34;;;;;;;36.05;17.17;;;;;;;5.02;100.00;101690.16;12264939;19;20011;-82
2022/01/23 08:41:51;;;;;;;40.63;18.75;;;;;;;5.08;100.00;101688.63;12268121;19;20033;-83
2022/01/23 08:45:53;;;;;;;35.05;16.70;;;;;;;5.14;100.00;101690.69;12245065;19;20010;-83
2022/01/23 08:49:54;;;;;;;34.28;17.35;;;;;;;5.17;100.00;101695.81;12258420;19;20002;-83
2022/01/23 08:54:02;;;;;;;36.58;18.52;;;;;;;5.22;100.00;101687.97;12260770;19;20010;-84
2022/01/23 08:58:11;;;;;;;35.30;17.67;;;;;;;5.29;100.00;101688.16;12244769;19;20026;-82
2022/01/23 09:02:13;;;;;;;38.25;18.70;;;;;;;5.36;100.00;101690.06;12213431;19;20480;-81
2022/01/23 09:06:15;;;;;;;37.75;17.73;;;;;;;5.47;100.00;101681.53;12229004;19;20046;-83
2022/01/23 09:10:25;;;;;;;40.30;18.98;;;;;;;5.58;100.00;101682.19;12234922;19;20086;-82
2022/01/23 09:14:27;;;;;;;38.00;18.50;;;;;;;5.64;100.00;101676.03;12231228;19;20011;-82
2022/01/23 09:18:28;;;;;;;38.13;17.65;;;;;;;5.73;100.00;101675.00;12225177;19;20010;-82
2022/01/23 09:22:31;;;;;;;38.35;17.58;;;;;;;5.78;100.00;101682.69;12223609;19;20038;-81
2022/01/23 09:26:36;;;;;;;27.02;13.10;;;;;;;5.81;100.00;101687.81;12239277;19;20027;-81
2022/01/23 09:30:39;;;;;;;40.95;19.75;;;;;;;5.88;100.00;101694.28;12241576;19;20038;-81
2022/01/23 09:34:42;;;;;;;45.17;18.70;;;;;;;5.82;99.68;101695.00;12238713;19;20031;-81
2022/01/23 09:38:44;;;;;;;48.00;20.60;;;;;;;5.82;99.49;101701.31;12232966;19;20011;-81
2022/01/23 09:43:01;;;;;;;38.42;18.92;;;;;;;5.89;99.38;101710.56;12236811;19;19999;-81
2022/01/23 09:47:04;;;;;;;44.47;19.92;;;;;;;5.96;99.43;101710.75;12230410;19;20040;-81
2022/01/23 09:51:05;;;;;;;38.87;19.27;;;;;;;6.04;99.49;101712.59;12232047;19;20039;-81
2022/01/23 09:55:11;;;;;;;40.03;17.77;;;;;;;6.15;98.94;101704.88;12232352;19;20319;-81
2022/01/23 09:59:15;;;;;;;41.78;20.25;;;;;;;6.22;97.91;101704.22;12235099;19;20816;-81
2022/01/23 10:03:19;;;;;;;35.80;17.15;;;;;;;6.30;97.38;101698.69;12234086;19;20444;-81
2022/01/23 10:07:21;;;;;;;40.90;19.65;;;;;;;6.41;96.60;101697.47;12230107;19;20027;-81
2022/01/23 10:11:23;;;;;;;34.40;17.87;;;;;;;6.50;96.07;101688.19;12234365;19;20034;-81
2022/01/23 10:15:31;;;;;;;38.22;18.67;;;;;;;6.61;95.68;101687.81;12226978;19;20007;-81
2022/01/23 10:19:33;;;;;;;40.28;18.60;;;;;;;6.76;94.69;101694.22;12233828;19;20517;-82
2022/01/23 10:23:36;;;;;;;41.00;19.57;;;;;;;6.89;94.60;101695.53;12232385;19;20465;-81
2022/01/23 10:28:00;;;;;;;40.67;19.67;;;;;;;6.96;93.62;101696.50;12229712;19;20010;-81
2022/01/23 10:32:35;;;;;;;36.13;18.17;;;;;;;6.93;93.65;101696.88;12229430;19;20100;-82
2022/01/23 10:37:04;;;;;;;40.83;18.67;;;;;;;7.00;93.34;101700.63;12231369;19;20019;-81
2022/01/23 10:41:32;;;;;;;40.42;18.05;;;;;;;6.93;93.07;101702.34;12234375;19;20580;-81
2022/01/23 10:50:06;;;;;;;35.53;17.67;;;;;;;7.23;92.20;101686.94;12230912;19;20011;-83
2022/01/23 10:54:20;;;;;;;39.67;18.95;;;;;;;7.23;90.76;101687.78;12239375;19;20114;-82
2022/01/23 10:58:24;;;;;;;34.58;16.80;;;;;;;7.15;91.59;101682.34;12239983;19;20015;-81
2022/01/23 11:02:26;;;;;;;44.08;20.83;;;;;;;7.23;91.59;101685.06;12231795;19;20006;-81
2022/01/23 11:06:28;;;;;;;36.08;17.33;;;;;;;7.34;91.10;101685.66;12232188;19;20035;-82
2022/01/23 11:10:30;;;;;;;36.53;17.02;;;;;;;7.46;90.72;101685.03;12232473;19;19999;-83
2022/01/23 11:19:49;;;;;;;33.72;16.88;;;;;;;7.51;89.74;101668.88;12254148;19;20039;-81
2022/01/23 11:29:57;;;;;;;32.22;15.05;;;;;;;7.66;87.63;101657.09;12245755;19;20050;-81
2022/01/23 11:34:01;;;;;;;32.83;14.80;;;;;;;7.72;86.76;101662.69;12247690;19;20129;-82
2022/01/23 11:38:09;;;;;;;25.98;11.32;;;;;;;7.59;84.32;101656.16;12240007;19;20014;-82
2022/01/23 11:55:33;;;;;;;19.70;9.38;;;;;;;7.94;83.06;101644.47;12245446;19;20073;-83
2022/01/23 11:59:41;;;;;;;18.33;9.25;;;;;;;7.97;83.20;101645.97;12253927;19;20010;-83
2022/01/23 12:04:08;;;;;;;17.77;9.80;;;;;;;8.04;82.84;101638.69;12250883;19;20077;-83
2022/01/23 12:08:22;;;;;;;18.23;8.95;;;;;;;8.11;82.65;101636.88;12251021;19;20043;-81
2022/01/23 12:12:37;;;;;;;17.35;8.35;;;;;;;8.03;81.66;101636.13;12250057;19;20038;-82
2022/01/23 12:16:53;;;;;;;17.02;8.23;;;;;;;7.85;80.79;101628.25;12248040;19;20035;-81
2022/01/23 12:20:55;;;;;;;20.38;10.18;;;;;;;7.88;82.19;101620.53;12247301;19;20013;-81
2022/01/23 12:25:04;;;;;;;18.03;9.30;;;;;;;7.87;81.48;101620.69;12249806;19;20471;-80
2022/01/23 12:29:18;;;;;;;16.08;8.32;;;;;;;7.74;81.71;101613.97;12236677;19;20006;-81
2022/01/23 12:33:41;;;;;;;16.38;8.07;;;;;;;7.78;82.12;101608.09;12239719;19;20010;-82
2022/01/23 12:38:02;;;;;;;16.30;9.10;;;;;;;7.80;81.29;101597.81;12243668;19;21543;-80
2022/01/23 12:42:05;;;;;;;14.95;7.43;;;;;;;7.69;81.27;101602.69;12238657;19;20074;-82
2022/01/23 12:46:08;;;;;;;16.30;7.93;;;;;;;7.82;81.21;101603.94;12229436;19;20026;-81
2022/01/23 12:50:10;;;;;;;14.50;7.30;;;;;;;7.96;81.22;101608.59;12240334;19;20044;-82
2022/01/23 12:54:16;;;;;;;15.25;7.60;;;;;;;8.08;80.70;101607.06;12239594;19;20015;-84
2022/01/23 12:58:18;;;;;;;16.17;6.75;;;;;;;8.22;80.47;101606.22;12237778;19;20062;-81
2022/01/23 13:02:26;;;;;;;12.38;5.22;;;;;;;8.11;75.39;101603.94;12234343;19;20018;-81
2022/01/23 13:06:38;;;;;;;10.10;5.22;;;;;;;8.22;78.10;101603.47;12234784;19;21061;-82
2022/01/23 13:19:32;;;;;;;10.13;4.30;;;;;;;8.31;76.19;101603.38;12236068;19;20433;-81
2022/01/23 13:36:26;;;;;;;15.45;6.43;;;;;;;7.96;76.49;101605.84;12235136;19;20048;-82
2022/01/23 13:40:41;;;;;;;;;;;;;;;7.81;76.76;101605.00;12245028;19;22193;-82
2022/01/23 13:53:52;;;;;;;11.48;5.15;;;;;;;7.63;77.81;101606.19;12247251;19;20030;-82
2022/01/23 13:58:33;;;;;;;12.00;5.70;;;;;;;7.59;77.55;101607.63;12243006;19;20010;-83
2022/01/23 14:02:40;;;;;;;12.90;5.80;;;;;;;7.48;77.11;101602.56;12245932;19;20018;-83
2022/01/23 14:06:42;;;;;;;15.48;5.97;;;;;;;7.45;77.68;101600.19;12237276;19;20083;-82
2022/01/23 14:10:44;;;;;;;11.30;5.57;;;;;;;7.39;77.79;101610.00;12247708;19;20525;-83
2022/01/23 14:15:00;;;;;;;12.68;5.55;;;;;;;7.33;77.73;101599.78;12245108;19;20007;-84
2022/01/23 14:19:20;;;;;;;10.45;5.60;;;;;;;7.28;77.55;101605.81;12249120;19;20356;-83
2022/01/23 14:23:22;;;;;;;11.88;5.78;;;;;;;7.23;78.02;101597.31;12232279;19;20011;-85
2022/01/23 14:27:24;;;;;;;11.90;5.25;;;;;;;7.15;78.23;101600.09;12233245;19;20101;-82
2022/01/23 14:31:35;;;;;;;9.90;5.25;;;;;;;7.11;78.47;101603.38;12231089;19;20007;-84
2022/01/23 14:35:37;;;;;;;9.30;4.57;;;;;;;7.10;78.52;101601.69;12240782;19;20007;-83
2022/01/23 14:39:39;;;;;;;9.60;4.40;;;;;;;7.07;78.66;101598.28;12242415;19;20010;-84
2022/01/23 14:43:42;;;;;;;8.70;4.50;;;;;;;7.05;78.35;101599.53;12234168;19;20031;-83
2022/01/23 14:47:45;;;;;;;7.43;3.95;;;;;;;7.04;77.76;101589.56;12228889;19;20019;-83
2022/01/23 14:51:47;;;;;;;11.23;5.28;;;;;;;7.00;77.43;101591.81;12228946;19;20610;-83
2022/01/23 14:55:59;;;;;;;9.23;4.75;;;;;;;6.99;77.89;101586.50;12233314;19;20030;-83
2022/01/23 15:00:05;;;;;;;9.07;4.47;;;;;;;6.94;77.99;101583.50;12209871;19;20043;-83
2022/01/23 15:04:08;;;;;;;18.48;7.80;;;;;;;6.91;77.91;101589.34;12221759;19;20010;-83
2022/01/23 15:08:13;;;;;;;12.60;6.15;;;;;;;6.90;78.34;101590.34;12224994;19;20653;-83
2022/01/23 15:12:15;;;;;;;8.90;5.13;;;;;;;6.90;78.87;101591.22;12225627;19;20039;-83
2022/01/23 15:16:17;;;;;;;9.40;5.20;;;;;;;6.89;79.23;101591.41;12228648;19;20043;-84
2022/01/23 15:20:19;;;;;;;11.52;5.00;;;;;;;6.83;79.26;101596.56;12230507;19;20028;-83
2022/01/23 15:24:21;;;;;;;9.30;4.57;;;;;;;6.79;79.68;101589.75;12225567;19;20003;-84
2022/01/23 15:28:23;;;;;;;11.10;4.18;;;;;;;6.76;79.60;101589.28;12231224;19;19999;-85
2022/01/23 15:32:25;;;;;;;7.45;3.88;;;;;;;6.70;79.54;101596.31;12229374;19;20011;-84
2022/01/23 15:36:27;;;;;;;8.88;4.35;;;;;;;6.63;79.67;101603.53;12230665;19;20035;-85
2022/01/23 15:40:28;;;;;;;9.32;4.32;;;;;;;6.57;79.87;101601.53;12227891;19;20034;-84
2022/01/23 15:44:30;;;;;;;9.50;4.45;;;;;;;6.56;80.10;101610.78;12229830;19;20027;-84
2022/01/23 15:48:33;;;;;;;8.88;4.30;;;;;;;6.51;80.50;101603.09;12218513;19;20011;-83
2022/01/23 15:52:34;;;;;;;12.25;5.13;;;;;;;6.46;80.86;101597.31;12196144;19;20029;-85
2022/01/23 15:56:36;;;;;;;6.82;3.42;;;;;;;6.43;81.09;101610.53;12215893;19;20007;-83
2022/01/23 16:00:38;;;;;;;7.80;3.08;;;;;;;6.41;81.44;101604.38;12228613;19;20006;-84
2022/01/23 16:04:40;;;;;;;7.95;3.20;;;;;;;6.32;81.58;101604.41;12232719;19;20019;-84
2022/01/23 16:08:42;;;;;;;5.68;2.90;;;;;;;6.28;81.68;101605.78;12238053;19;20515;-82
2022/01/23 16:12:43;;;;;;;6.20;3.40;;;;;;;6.23;82.00;101610.94;12237352;19;20010;-83
2022/01/23 16:16:46;;;;;;;5.28;2.85;;;;;;;6.20;81.75;101613.19;12236924;19;20015;-82
2022/01/23 16:20:48;;;;;;;4.40;2.40;;;;;;;6.14;80.31;101612.00;12239517;19;20027;-83
2022/01/23 16:24:50;;;;;;;5.25;2.97;;;;;;;6.15;79.66;101610.97;12240022;19;20015;-83
2022/01/23 16:28:52;;;;;;;4.68;2.67;;;;;;;6.10;78.84;101610.66;12248321;19;20007;-84
2022/01/23 16:32:55;;;;;;;6.10;3.22;;;;;;;6.06;78.93;101612.88;12250042;19;20014;-86
2022/01/23 16:41:37;;;;;;;4.18;2.28;;;;;;;6.03;80.22;101620.59;12264089;19;19995;-85
2022/01/23 16:45:41;;;;;;;5.70;2.72;;;;;;;6.01;80.15;101617.16;12254722;19;20007;-85
2022/01/23 16:49:44;;;;;;;4.72;2.75;;;;;;;6.00;80.33;101615.47;12237408;19;20007;-86
2022/01/23 16:53:46;;;;;;;5.90;2.70;;;;;;;5.96;81.03;101614.97;12229433;19;20015;-85
2022/01/23 16:57:48;;;;;;;8.27;3.92;;;;;;;5.93;81.33;101621.66;12235034;19;20348;-85
2022/01/23 17:01:50;;;;;;;89.80;33.58;;;;;;;5.87;81.08;101626.94;12231383;19;20022;-83
2022/01/23 17:05:53;;;;;;;41.80;16.83;;;;;;;5.86;80.29;101619.72;12234458;19;20017;-84
2022/01/23 17:09:55;;;;;;;21.83;9.82;;;;;;;5.85;80.41;101616.16;12237332;19;20007;-84
2022/01/23 17:13:57;;;;;;;8.65;4.50;;;;;;;5.84;81.07;101617.19;12252858;19;20025;-84
2022/01/23 17:17:59;;;;;;;6.38;2.90;;;;;;;5.86;81.40;101615.16;12254239;19;20018;-84
2022/01/23 17:22:00;;;;;;;4.68;2.58;;;;;;;5.84;81.37;101614.47;12244740;19;20046;-81
2022/01/23 17:26:04;;;;;;;5.40;2.88;;;;;;;5.84;81.59;101619.94;12230334;19;20014;-83
2022/01/23 17:30:06;;;;;;;3.37;2.20;;;;;;;5.79;81.85;101619.59;12229473;19;20070;-83
2022/01/23 17:34:08;;;;;;;54.38;22.60;;;;;;;5.77;81.84;101620.78;12237701;19;20323;-84
2022/01/23 17:38:10;;;;;;;15.02;7.60;;;;;;;5.68;81.31;101611.75;12242722;19;20439;-84
2022/01/23 17:42:12;;;;;;;8.55;5.13;;;;;;;5.60;81.22;101603.56;12240818;19;20006;-81
2022/01/23 17:46:21;;;;;;;4.65;2.65;;;;;;;5.58;81.90;101606.47;12234469;19;20015;-82
2022/01/23 17:50:29;;;;;;;6.00;2.88;;;;;;;5.58;82.14;101614.66;12239392;19;20015;-83
2022/01/23 17:54:31;;;;;;;6.05;2.75;;;;;;;5.55;82.25;101604.06;12225467;19;20066;-84
2022/01/23 17:58:32;;;;;;;5.72;2.40;;;;;;;5.53;82.14;101605.28;12233364;19;20026;-84
2022/01/23 18:02:35;;;;;;;5.13;2.55;;;;;;;5.51;81.18;101613.66;12226032;19;20006;-84
2022/01/23 18:06:39;;;;;;;5.30;2.42;;;;;;;5.51;81.18;101613.66;12235019;19;20010;-84
2022/01/23 18:10:45;;;;;;;4.78;2.15;;;;;;;5.51;81.45;101610.09;12240790;19;20038;-83
2022/01/23 18:14:48;;;;;;;4.57;2.60;;;;;;;5.47;81.63;101610.44;12241164;19;20086;-83
2022/01/23 18:18:50;;;;;;;6.07;3.22;;;;;;;5.40;81.37;101614.84;12247770;19;20342;-83
2022/01/23 18:23:13;;;;;;;4.97;3.08;;;;;;;5.36;81.58;101613.50;12236063;19;20003;-81
2022/01/23 18:27:14;;;;;;;6.22;3.70;;;;;;;5.36;80.91;101610.78;12218292;19;20006;-83
2022/01/23 18:31:16;;;;;;;4.65;2.65;;;;;;;5.33;80.34;101602.91;12228517;19;20110;-84
2022/01/23 18:35:18;;;;;;;5.53;2.50;;;;;;;5.30;81.26;101597.78;12226298;19;20022;-84
2022/01/23 18:39:19;;;;;;;4.63;2.70;;;;;;;5.31;81.31;101610.41;12229051;19;20039;-83
2022/01/23 18:43:21;;;;;;;5.53;2.85;;;;;;;5.31;81.50;101610.41;12238181;19;20017;-83
2022/01/23 18:47:23;;;;;;;6.40;3.30;;;;;;;5.29;81.52;101612.47;12241674;19;20013;-82
2022/01/23 18:51:28;;;;;;;4.70;2.88;;;;;;;5.29;81.45;101604.25;12244109;19;20006;-83
2022/01/23 18:55:33;;;;;;;5.18;2.58;;;;;;;5.28;81.12;101613.50;12251611;19;20045;-83
2022/01/23 18:59:44;;;;;;;6.40;2.95;;;;;;;5.31;81.29;101615.03;12245582;19;20010;-84
2022/01/23 19:04:02;;;;;;;6.35;3.30;;;;;;;5.30;81.05;101613.34;12249155;19;20014;-83
2022/01/23 19:08:11;;;;;;;6.40;2.70;;;;;;;5.25;80.51;101611.09;12253147;19;20022;-83
2022/01/23 19:12:16;;;;;;;4.75;2.83;;;;;;;5.27;81.02;101611.81;12250633;19;20019;-84
2022/01/23 19:16:20;;;;;;;6.63;2.83;;;;;;;5.28;81.47;101609.91;12238630;19;20010;-84
2022/01/23 19:20:23;;;;;;;;;;;;;;;5.25;81.09;101608.38;12236321;19;20002;-83
2022/01/23 19:24:25;;;;;;;5.67;2.77;;;;;;;5.25;81.22;101614.69;12240702;19;19970;-83
2022/01/23 19:28:30;;;;;;;7.03;3.20;;;;;;;5.22;80.50;101611.44;12251427;19;20032;-83
2022/01/23 19:32:34;;;;;;;8.25;3.40;;;;;;;5.21;80.87;101612.50;12239073;19;20010;-83
2022/01/23 19:36:37;;;;;;;5.57;2.83;;;;;;;5.21;80.47;101612.50;12243093;19;20006;-85
2022/01/23 19:40:57;;;;;;;6.85;3.33;;;;;;;5.18;80.85;101610.09;12252771;19;20013;-83
2022/01/23 19:45:02;;;;;;;4.88;2.90;;;;;;;5.20;81.35;101613.50;12255068;19;20024;-84
2022/01/23 19:49:15;;;;;;;4.97;2.25;;;;;;;5.23;81.58;101613.16;12248808;19;20006;-83
2022/01/23 19:53:32;;;;;;;5.78;2.65;;;;;;;5.22;81.36;101615.03;12245118;19;20485;-83
2022/01/23 19:57:51;;;;;;;6.50;2.72;;;;;;;5.24;81.56;101615.72;12252678;19;20046;-83
2022/01/23 20:02:01;;;;;;;7.78;3.58;;;;;;;5.22;80.94;101619.66;12249895;19;20008;-83
2022/01/23 20:06:12;;;;;;;6.75;3.33;;;;;;;5.23;81.50;101624.09;12247695;19;20094;-84
2022/01/23 20:10:31;;;;;;;6.15;3.22;;;;;;;5.24;81.52;101623.09;12245694;19;20014;-83
2022/01/23 20:14:38;;;;;;;6.90;3.53;;;;;;;5.18;81.24;101612.84;12248092;19;20022;-84
2022/01/23 20:18:45;;;;;;;9.52;4.10;;;;;;;5.13;81.67;101613.31;12250720;19;20007;-83
2022/01/23 20:22:49;;;;;;;8.15;4.45;;;;;;;5.04;81.59;101614.34;12246047;19;20014;-82
2022/01/23 20:27:03;;;;;;;9.43;5.00;;;;;;;4.97;81.91;101621.53;12244395;19;20006;-84
2022/01/23 20:31:14;;;;;;;9.15;4.22;;;;;;;4.93;81.99;101618.25;12248675;19;20025;-83
2022/01/23 20:35:16;;;;;;;10.47;6.20;;;;;;;4.88;82.47;101617.94;12245212;19;20017;-84
2022/01/23 20:39:19;;;;;;;8.70;4.32;;;;;;;4.79;82.70;101627.97;12253160;19;20017;-83
2022/01/23 20:43:21;;;;;;;6.60;3.90;;;;;;;4.69;83.19;101616.34;12248422;19;20025;-84
2022/01/23 20:47:31;;;;;;;7.25;3.45;;;;;;;4.55;83.41;101623.31;12249201;19;20015;-84
2022/01/23 20:51:36;;;;;;;7.15;3.63;;;;;;;4.38;83.82;101618.81;12254751;19;19999;-84
2022/01/23 20:55:44;;;;;;;7.22;3.45;;;;;;;4.29;84.19;101625.28;12257306;19;20010;-83
2022/01/23 20:59:46;;;;;;;5.80;3.15;;;;;;;4.24;84.41;101630.34;12247309;19;20512;-83
2022/01/23 21:03:52;;;;;;;6.77;3.77;;;;;;;4.23;84.71;101626.78;12248961;19;20104;-83
2022/01/23 21:07:55;;;;;;;6.03;3.38;;;;;;;4.20;84.95;101626.25;12246332;19;20010;-82
2022/01/23 21:11:57;;;;;;;7.57;3.58;;;;;;;4.19;84.80;101628.09;12246887;19;20532;-83
2022/01/23 21:16:30;;;;;;;7.32;3.65;;;;;;;4.20;85.16;101635.28;12256000;19;20091;-82
2022/01/23 21:33:33;;;;;;;8.25;3.88;;;;;;;4.27;85.56;101633.59;12241143;19;20007;-83
2022/01/23 21:41:56;;;;;;;7.13;3.63;;;;;;;4.23;85.82;101628.66;12239924;19;20132;-82
2022/01/23 21:45:57;;;;;;;6.50;3.78;;;;;;;4.13;85.70;101625.19;12241146;19;20039;-83
2022/01/23 21:49:59;;;;;;;6.63;3.80;;;;;;;3.93;86.18;101619.13;12244175;19;20006;-85
2022/01/23 21:54:01;;;;;;;5.85;2.88;;;;;;;3.68;86.49;101621.69;12250475;19;20357;-83
2022/01/23 21:58:02;;;;;;;4.95;2.45;;;;;;;3.44;87.06;101622.38;12243927;19;20049;-83
2022/01/23 22:02:06;;;;;;;6.40;3.45;;;;;;;3.22;87.24;101621.03;12238419;19;20539;-83
2022/01/23 22:06:27;;;;;;;;;;;;;;;2.98;87.95;101618.94;12248755;19;20390;-82
2022/01/23 22:10:36;;;;;;;5.03;2.30;;;;;;;2.82;88.28;101619.63;12251456;19;19990;-85
2022/01/23 22:19:01;;;;;;;4.00;2.38;;;;;;;2.74;88.43;101611.41;12257391;19;20007;-86
2022/01/23 22:27:05;;;;;;;5.28;2.53;;;;;;;2.71;89.14;101607.13;12252491;19;20010;-83
2022/01/23 22:31:11;;;;;;;4.13;2.08;;;;;;;2.66;89.24;101606.72;12257396;19;20360;-83
2022/01/23 22:35:12;;;;;;;5.82;2.60;;;;;;;2.64;89.80;101602.44;12248985;19;20006;-84
2022/01/23 22:39:14;;;;;;;5.35;2.38;;;;;;;2.66;90.23;101604.00;12251973;19;20014;-84
2022/01/23 22:43:21;;;;;;;8.13;3.30;;;;;;;2.67;89.92;101594.81;12246978;19;20017;-85
2022/01/23 22:47:23;;;;;;;5.63;2.67;;;;;;;2.71;90.18;101606.25;12248279;19;20007;-85